Capitol Logistics 237


KRIV
March Air Reserve Base
Riverside, California, US
KIAD
Washington Dulles International Airport
Dulles, Virginia, US

Route Details

Aircraft Information
Primary: Boeing 767-300BDSF
Backup: Not Available
Route Data
Distance: 1970nm
Sched. Duration: 4h 20m
Avg. Duration: 4h 22m (+2m)
Times Flown: 4
Recm'd Route: TRM PKE J78 DRK J96 GUP J8 FTI MMB PER SGF J98 FAM J78 HVQ GIBBZ2
Planned Altitude: 33,000ft
Origin Wx: KRIV 291958Z AUTO 02004KT 10SM CLR 30/M10 A3002 RMK AO2 SLP158 T02971098
Dest. Wx: KIAD 291952Z 34013KT 4SM BR OVC006 12/11 A2943 RMK AO2 PK WND 33026/1917 RAE37 SLP966 P0000 T01170111
Notes:

Financial History
Total Freight: 259,150lbs
Average Load: 64,788lbs/flt
Fuel Used: 168,402lbs
Avg. Fuel Used: 42,101lbs/flt
Fuel Expense: $116,197
Avg. Fuel Expense: $29,049
Avg. Fuel Cost: $0.69/lbs
Total Gross Income: $396,447
Pilot Pay: $926
Total Expenses: $43,024
Total Revenue: $232,921
Average Revenue: $99,111.66